sensor_id;sensor_type;location;lat;lon;timestamp;pressure;altitude;pressure_sealevel;temperature;humidity
48790;BME280;41718;51.980;5.734;2022-12-18T00:01:21;102668.06;;;-5.29;100.00
48790;BME280;41718;51.980;5.734;2022-12-18T00:06:26;102663.50;;;-5.41;100.00
48790;BME280;41718;51.980;5.734;2022-12-18T00:11:30;102656.78;;;-5.56;100.00
48790;BME280;41718;51.980;5.734;2022-12-18T00:16:38;102668.25;;;-5.67;100.00
48790;BME280;41718;51.980;5.734;2022-12-18T00:21:42;102659.81;;;-5.67;100.00
48790;BME280;41718;51.980;5.734;2022-12-18T00:26:44;102655.31;;;-5.70;100.00
48790;BME280;41718;51.980;5.734;2022-12-18T00:31:46;102657.09;;;-5.69;100.00
48790;BME280;41718;51.980;5.734;2022-12-18T00:36:51;102637.34;;;-5.73;100.00
48790;BME280;41718;51.980;5.734;2022-12-18T00:41:53;102640.78;;;-5.72;100.00
48790;BME280;41718;51.980;5.734;2022-12-18T00:47:13;102648.59;;;-5.85;100.00
48790;BME280;41718;51.980;5.734;2022-12-18T00:52:14;102658.13;;;-5.82;100.00
48790;BME280;41718;51.980;5.734;2022-12-18T00:57:16;102653.09;;;-5.82;100.00
48790;BME280;41718;51.980;5.734;2022-12-18T01:02:17;102657.53;;;-5.96;100.00
48790;BME280;41718;51.980;5.734;2022-12-18T01:07:19;102651.34;;;-5.91;100.00
48790;BME280;41718;51.980;5.734;2022-12-18T01:12:20;102651.06;;;-5.94;100.00
48790;BME280;41718;51.980;5.734;2022-12-18T01:17:22;102639.06;;;-6.03;100.00
48790;BME280;41718;51.980;5.734;2022-12-18T01:22:23;102627.59;;;-6.08;100.00
48790;BME280;41718;51.980;5.734;2022-12-18T01:27:25;102640.19;;;-6.08;100.00
48790;BME280;41718;51.980;5.734;2022-12-18T01:32:30;102649.94;;;-6.11;100.00
48790;BME280;41718;51.980;5.734;2022-12-18T01:37:31;102656.06;;;-6.17;100.00
48790;BME280;41718;51.980;5.734;2022-12-18T01:42:33;102656.81;;;-6.18;100.00
48790;BME280;41718;51.980;5.734;2022-12-18T01:57:54;102660.44;;;-6.23;100.00
48790;BME280;41718;51.980;5.734;2022-12-18T02:02:56;102654.00;;;-6.28;100.00
48790;BME280;41718;51.980;5.734;2022-12-18T02:13:04;102662.28;;;-6.29;100.00
48790;BME280;41718;51.980;5.734;2022-12-18T02:18:15;102669.63;;;-6.30;100.00
48790;BME280;41718;51.980;5.734;2022-12-18T02:28:28;102656.78;;;-6.41;100.00
48790;BME280;41718;51.980;5.734;2022-12-18T02:33:33;102659.72;;;-6.59;100.00
48790;BME280;41718;51.980;5.734;2022-12-18T02:38:37;102665.84;;;-6.57;100.00
48790;BME280;41718;51.980;5.734;2022-12-18T02:43:38;102653.19;;;-6.80;100.00
48790;BME280;41718;51.980;5.734;2022-12-18T02:48:40;102658.56;;;-6.77;100.00
48790;BME280;41718;51.980;5.734;2022-12-18T02:53:50;102660.75;;;-6.87;100.00
48790;BME280;41718;51.980;5.734;2022-12-18T02:59:09;102654.66;;;-6.89;100.00
48790;BME280;41718;51.980;5.734;2022-12-18T03:04:26;102647.19;;;-7.03;100.00
48790;BME280;41718;51.980;5.734;2022-12-18T03:09:34;102653.31;;;-7.08;100.00
48790;BME280;41718;51.980;5.734;2022-12-18T03:14:37;102641.97;;;-6.98;100.00
48790;BME280;41718;51.980;5.734;2022-12-18T03:19:40;102631.66;;;-6.85;100.00
48790;BME280;41718;51.980;5.734;2022-12-18T03:24:44;102625.84;;;-6.77;100.00
48790;BME280;41718;51.980;5.734;2022-12-18T03:35:29;102617.09;;;-6.87;100.00
48790;BME280;41718;51.980;5.734;2022-12-18T03:40:45;102611.63;;;-6.69;100.00
48790;BME280;41718;51.980;5.734;2022-12-18T03:46:05;102606.56;;;-6.62;100.00
48790;BME280;41718;51.980;5.734;2022-12-18T03:51:18;102605.25;;;-6.58;100.00
48790;BME280;41718;51.980;5.734;2022-12-18T03:56:29;102608.34;;;-6.61;100.00
48790;BME280;41718;51.980;5.734;2022-12-18T04:01:38;102611.69;;;-6.53;100.00
48790;BME280;41718;51.980;5.734;2022-12-18T04:06:41;102609.25;;;-6.60;100.00
48790;BME280;41718;51.980;5.734;2022-12-18T04:11:45;102608.91;;;-6.63;100.00
48790;BME280;41718;51.980;5.734;2022-12-18T04:16:47;102593.25;;;-6.61;100.00
48790;BME280;41718;51.980;5.734;2022-12-18T04:21:49;102590.94;;;-6.67;100.00
48790;BME280;41718;51.980;5.734;2022-12-18T04:26:50;102588.59;;;-6.65;100.00
48790;BME280;41718;51.980;5.734;2022-12-18T04:31:52;102580.00;;;-6.67;100.00
48790;BME280;41718;51.980;5.734;2022-12-18T04:36:53;102587.38;;;-6.69;100.00
48790;BME280;41718;51.980;5.734;2022-12-18T04:41:55;102588.63;;;-6.42;100.00
48790;BME280;41718;51.980;5.734;2022-12-18T04:46:56;102598.69;;;-6.42;100.00
48790;BME280;41718;51.980;5.734;2022-12-18T04:51:58;102591.19;;;-6.49;100.00
48790;BME280;41718;51.980;5.734;2022-12-18T04:56:59;102597.19;;;-6.56;100.00
48790;BME280;41718;51.980;5.734;2022-12-18T05:02:01;102606.75;;;-6.37;100.00
48790;BME280;41718;51.980;5.734;2022-12-18T05:07:02;102615.25;;;-6.44;100.00
48790;BME280;41718;51.980;5.734;2022-12-18T05:12:04;102618.16;;;-6.48;100.00
48790;BME280;41718;51.980;5.734;2022-12-18T05:17:05;102630.78;;;-6.55;100.00
48790;BME280;41718;51.980;5.734;2022-12-18T05:22:07;102635.75;;;-6.48;100.00
48790;BME280;41718;51.980;5.734;2022-12-18T05:27:08;102649.34;;;-6.62;100.00
48790;BME280;41718;51.980;5.734;2022-12-18T05:32:10;102654.22;;;-6.71;100.00
48790;BME280;41718;51.980;5.734;2022-12-18T05:37:12;102655.22;;;-6.54;100.00
48790;BME280;41718;51.980;5.734;2022-12-18T05:42:13;102670.00;;;-6.64;100.00
48790;BME280;41718;51.980;5.734;2022-12-18T05:47:15;102665.03;;;-6.79;100.00
48790;BME280;41718;51.980;5.734;2022-12-18T05:52:17;102644.75;;;-6.87;100.00
48790;BME280;41718;51.980;5.734;2022-12-18T05:57:18;102633.16;;;-7.01;100.00
48790;BME280;41718;51.980;5.734;2022-12-18T06:02:20;102624.34;;;-6.98;100.00
48790;BME280;41718;51.980;5.734;2022-12-18T06:07:22;102613.31;;;-6.84;100.00
48790;BME280;41718;51.980;5.734;2022-12-18T06:12:23;102613.03;;;-6.64;100.00
48790;BME280;41718;51.980;5.734;2022-12-18T06:17:32;102614.66;;;-6.64;100.00
48790;BME280;41718;51.980;5.734;2022-12-18T06:22:33;102606.66;;;-6.83;100.00
48790;BME280;41718;51.980;5.734;2022-12-18T06:27:36;102604.56;;;-6.57;100.00
48790;BME280;41718;51.980;5.734;2022-12-18T06:32:37;102595.41;;;-6.64;100.00
48790;BME280;41718;51.980;5.734;2022-12-18T06:37:39;102582.16;;;-6.40;100.00
48790;BME280;41718;51.980;5.734;2022-12-18T06:42:40;102589.66;;;-6.33;100.00
48790;BME280;41718;51.980;5.734;2022-12-18T06:47:42;102580.19;;;-6.20;100.00
48790;BME280;41718;51.980;5.734;2022-12-18T06:52:43;102569.59;;;-6.24;100.00
48790;BME280;41718;51.980;5.734;2022-12-18T06:57:45;102570.19;;;-6.27;100.00
48790;BME280;41718;51.980;5.734;2022-12-18T07:02:46;102551.72;;;-5.96;100.00
48790;BME280;41718;51.980;5.734;2022-12-18T07:07:49;102557.00;;;-5.86;100.00
48790;BME280;41718;51.980;5.734;2022-12-18T07:12:50;102565.63;;;-5.99;100.00
48790;BME280;41718;51.980;5.734;2022-12-18T07:17:52;102570.59;;;-5.92;100.00
48790;BME280;41718;51.980;5.734;2022-12-18T07:22:53;102568.19;;;-5.91;100.00
48790;BME280;41718;51.980;5.734;2022-12-18T07:27:56;102568.59;;;-5.72;100.00
48790;BME280;41718;51.980;5.734;2022-12-18T07:32:58;102565.06;;;-5.81;100.00
48790;BME280;41718;51.980;5.734;2022-12-18T07:38:01;102557.84;;;-5.78;100.00
48790;BME280;41718;51.980;5.734;2022-12-18T07:43:03;102546.63;;;-5.73;100.00
48790;BME280;41718;51.980;5.734;2022-12-18T07:48:04;102531.09;;;-5.69;100.00
48790;BME280;41718;51.980;5.734;2022-12-18T07:53:06;102523.78;;;-5.58;100.00
48790;BME280;41718;51.980;5.734;2022-12-18T07:58:07;102507.03;;;-5.42;100.00
48790;BME280;41718;51.980;5.734;2022-12-18T08:03:09;102524.44;;;-5.52;100.00
48790;BME280;41718;51.980;5.734;2022-12-18T08:08:12;102519.06;;;-5.40;100.00
48790;BME280;41718;51.980;5.734;2022-12-18T08:13:13;102502.88;;;-5.26;100.00
48790;BME280;41718;51.980;5.734;2022-12-18T08:18:15;102499.47;;;-5.26;100.00
48790;BME280;41718;51.980;5.734;2022-12-18T08:23:16;102498.47;;;-5.20;100.00
48790;BME280;41718;51.980;5.734;2022-12-18T08:28:18;102495.28;;;-5.10;100.00
48790;BME280;41718;51.980;5.734;2022-12-18T08:33:19;102504.88;;;-4.90;100.00
48790;BME280;41718;51.980;5.734;2022-12-18T08:38:21;102505.63;;;-4.91;100.00
48790;BME280;41718;51.980;5.734;2022-12-18T08:43:22;102522.41;;;-4.92;100.00
48790;BME280;41718;51.980;5.734;2022-12-18T08:48:43;102512.06;;;-4.86;100.00
48790;BME280;41718;51.980;5.734;2022-12-18T08:53:45;102512.94;;;-4.86;100.00
48790;BME280;41718;51.980;5.734;2022-12-18T08:58:46;102507.00;;;-4.86;100.00
48790;BME280;41718;51.980;5.734;2022-12-18T09:03:49;102521.19;;;-4.71;100.00
48790;BME280;41718;51.980;5.734;2022-12-18T09:08:50;102517.44;;;-4.50;100.00
48790;BME280;41718;51.980;5.734;2022-12-18T09:13:53;102508.75;;;-4.36;100.00
48790;BME280;41718;51.980;5.734;2022-12-18T09:18:55;102516.69;;;-4.24;100.00
48790;BME280;41718;51.980;5.734;2022-12-18T09:24:00;102511.78;;;-4.23;100.00
48790;BME280;41718;51.980;5.734;2022-12-18T09:29:02;102516.13;;;-4.13;100.00
48790;BME280;41718;51.980;5.734;2022-12-18T09:34:05;102506.50;;;-4.00;100.00
48790;BME280;41718;51.980;5.734;2022-12-18T09:39:07;102494.19;;;-3.88;100.00
48790;BME280;41718;51.980;5.734;2022-12-18T09:44:32;102497.44;;;-3.81;100.00
48790;BME280;41718;51.980;5.734;2022-12-18T09:49:47;102496.44;;;-3.65;100.00
48790;BME280;41718;51.980;5.734;2022-12-18T09:54:53;102487.22;;;-3.65;100.00
48790;BME280;41718;51.980;5.734;2022-12-18T09:59:59;102479.81;;;-3.55;100.00
48790;BME280;41718;51.980;5.734;2022-12-18T10:05:06;102481.56;;;-3.54;100.00
48790;BME280;41718;51.980;5.734;2022-12-18T10:15:32;102477.13;;;-3.39;100.00
48790;BME280;41718;51.980;5.734;2022-12-18T10:20:44;102463.13;;;-3.27;100.00
48790;BME280;41718;51.980;5.734;2022-12-18T10:26:00;102456.84;;;-3.13;100.00
48790;BME280;41718;51.980;5.734;2022-12-18T10:31:06;102456.41;;;-3.09;100.00
48790;BME280;41718;51.980;5.734;2022-12-18T10:36:07;102445.69;;;-3.06;100.00
48790;BME280;41718;51.980;5.734;2022-12-18T10:46:24;102448.75;;;-2.83;100.00
48790;BME280;41718;51.980;5.734;2022-12-18T10:51:32;102428.63;;;-2.81;100.00
48790;BME280;41718;51.980;5.734;2022-12-18T10:56:38;102421.00;;;-2.73;100.00
48790;BME280;41718;51.980;5.734;2022-12-18T11:01:52;102412.94;;;-2.69;100.00
48790;BME280;41718;51.980;5.734;2022-12-18T11:07:06;102398.06;;;-2.65;100.00
48790;BME280;41718;51.980;5.734;2022-12-18T11:12:23;102395.59;;;-2.55;100.00
48790;BME280;41718;51.980;5.734;2022-12-18T11:17:27;102406.03;;;-2.52;100.00
48790;BME280;41718;51.980;5.734;2022-12-18T11:22:33;102388.97;;;-2.45;100.00
48790;BME280;41718;51.980;5.734;2022-12-18T11:27:37;102362.72;;;-2.36;100.00
48790;BME280;41718;51.980;5.734;2022-12-18T11:32:43;102352.81;;;-2.25;100.00
48790;BME280;41718;51.980;5.734;2022-12-18T11:37:53;102357.06;;;-2.15;100.00
48790;BME280;41718;51.980;5.734;2022-12-18T11:43:25;102365.47;;;-2.06;100.00
48790;BME280;41718;51.980;5.734;2022-12-18T11:48:43;102357.81;;;-1.97;100.00
48790;BME280;41718;51.980;5.734;2022-12-18T11:53:47;102352.47;;;-2.00;100.00
48790;BME280;41718;51.980;5.734;2022-12-18T12:09:42;102316.56;;;-1.86;100.00
48790;BME280;41718;51.980;5.734;2022-12-18T12:15:13;102305.72;;;-1.75;100.00
48790;BME280;41718;51.980;5.734;2022-12-18T12:20:22;102298.09;;;-1.75;100.00
48790;BME280;41718;51.980;5.734;2022-12-18T12:25:39;102310.69;;;-1.66;100.00
48790;BME280;41718;51.980;5.734;2022-12-18T12:30:52;102301.84;;;-1.61;100.00
48790;BME280;41718;51.980;5.734;2022-12-18T12:36:08;102284.97;;;-1.61;100.00
48790;BME280;41718;51.980;5.734;2022-12-18T12:41:21;102275.09;;;-1.57;100.00
48790;BME280;41718;51.980;5.734;2022-12-18T12:46:44;102278.78;;;-1.54;100.00
48790;BME280;41718;51.980;5.734;2022-12-18T12:51:53;102266.25;;;-1.52;100.00
48790;BME280;41718;51.980;5.734;2022-12-18T12:57:09;102258.00;;;-1.50;100.00
48790;BME280;41718;51.980;5.734;2022-12-18T13:02:28;102244.81;;;-1.46;100.00
48790;BME280;41718;51.980;5.734;2022-12-18T13:07:36;102237.97;;;-1.47;100.00
48790;BME280;41718;51.980;5.734;2022-12-18T13:18:16;102239.25;;;-1.42;100.00
48790;BME280;41718;51.980;5.734;2022-12-18T13:33:46;102228.09;;;-1.34;100.00
48790;BME280;41718;51.980;5.734;2022-12-18T13:49:43;102199.66;;;-1.40;100.00
48790;BME280;41718;51.980;5.734;2022-12-18T13:54:54;102204.38;;;-1.34;100.00
48790;BME280;41718;51.980;5.734;2022-12-18T13:59:57;102196.88;;;-1.33;100.00
48790;BME280;41718;51.980;5.734;2022-12-18T14:04:59;102196.63;;;-1.36;100.00
48790;BME280;41718;51.980;5.734;2022-12-18T14:10:01;102189.25;;;-1.33;100.00
48790;BME280;41718;51.980;5.734;2022-12-18T14:20:31;102186.47;;;-1.36;100.00
48790;BME280;41718;51.980;5.734;2022-12-18T14:25:33;102169.34;;;-1.28;100.00
48790;BME280;41718;51.980;5.734;2022-12-18T14:30:37;102158.69;;;-1.34;100.00
48790;BME280;41718;51.980;5.734;2022-12-18T14:35:42;102149.69;;;-1.30;100.00
48790;BME280;41718;51.980;5.734;2022-12-18T14:40:44;102154.09;;;-1.38;100.00
48790;BME280;41718;51.980;5.734;2022-12-18T14:45:45;102144.22;;;-1.35;100.00
48790;BME280;41718;51.980;5.734;2022-12-18T14:50:59;102140.53;;;-1.39;100.00
48790;BME280;41718;51.980;5.734;2022-12-18T14:56:02;102142.44;;;-1.36;100.00
48790;BME280;41718;51.980;5.734;2022-12-18T15:01:04;102139.91;;;-1.36;100.00
48790;BME280;41718;51.980;5.734;2022-12-18T15:06:16;102127.97;;;-1.37;100.00
48790;BME280;41718;51.980;5.734;2022-12-18T15:11:28;102124.31;;;-1.41;100.00
48790;BME280;41718;51.980;5.734;2022-12-18T15:16:31;102126.19;;;-1.38;100.00
48790;BME280;41718;51.980;5.734;2022-12-18T15:21:33;102133.28;;;-1.44;100.00
48790;BME280;41718;51.980;5.734;2022-12-18T15:26:37;102132.03;;;-1.39;100.00
48790;BME280;41718;51.980;5.734;2022-12-18T15:31:40;102124.03;;;-1.44;100.00
48790;BME280;41718;51.980;5.734;2022-12-18T15:36:44;102115.66;;;-1.43;100.00
48790;BME280;41718;51.980;5.734;2022-12-18T15:41:46;102124.31;;;-1.41;100.00
48790;BME280;41718;51.980;5.734;2022-12-18T15:47:12;102138.63;;;-1.41;100.00
48790;BME280;41718;51.980;5.734;2022-12-18T15:52:14;102121.75;;;-1.41;100.00
48790;BME280;41718;51.980;5.734;2022-12-18T15:57:27;102131.25;;;-1.38;100.00
48790;BME280;41718;51.980;5.734;2022-12-18T16:02:33;102123.41;;;-1.41;100.00
48790;BME280;41718;51.980;5.734;2022-12-18T16:07:38;102122.13;;;-1.46;100.00
48790;BME280;41718;51.980;5.734;2022-12-18T16:12:41;102108.03;;;-1.43;100.00
48790;BME280;41718;51.980;5.734;2022-12-18T16:17:46;102103.50;;;-1.47;100.00
48790;BME280;41718;51.980;5.734;2022-12-18T16:22:48;102092.94;;;-1.51;100.00
48790;BME280;41718;51.980;5.734;2022-12-18T16:27:51;102083.56;;;-1.52;100.00
48790;BME280;41718;51.980;5.734;2022-12-18T16:32:54;102066.16;;;-1.48;100.00
48790;BME280;41718;51.980;5.734;2022-12-18T16:37:55;102058.06;;;-1.44;100.00
48790;BME280;41718;51.980;5.734;2022-12-18T16:42:57;102050.56;;;-1.42;100.00
48790;BME280;41718;51.980;5.734;2022-12-18T16:47:58;102051.47;;;-1.42;100.00
48790;BME280;41718;51.980;5.734;2022-12-18T16:52:59;102046.78;;;-1.47;100.00
48790;BME280;41718;51.980;5.734;2022-12-18T16:58:01;102041.06;;;-1.45;100.00
48790;BME280;41718;51.980;5.734;2022-12-18T17:03:02;102042.34;;;-1.40;100.00
48790;BME280;41718;51.980;5.734;2022-12-18T17:08:05;102026.22;;;-1.50;100.00
48790;BME280;41718;51.980;5.734;2022-12-18T17:13:06;102030.28;;;-1.52;100.00
48790;BME280;41718;51.980;5.734;2022-12-18T17:18:08;102026.09;;;-1.52;100.00
48790;BME280;41718;51.980;5.734;2022-12-18T17:23:09;102032.84;;;-1.52;100.00
48790;BME280;41718;51.980;5.734;2022-12-18T17:28:11;102038.03;;;-1.51;100.00
48790;BME280;41718;51.980;5.734;2022-12-18T17:33:13;102033.44;;;-1.55;100.00
48790;BME280;41718;51.980;5.734;2022-12-18T17:38:17;102037.75;;;-1.54;100.00
48790;BME280;41718;51.980;5.734;2022-12-18T17:43:19;102025.97;;;-1.53;100.00
48790;BME280;41718;51.980;5.734;2022-12-18T17:48:20;102033.44;;;-1.55;100.00
48790;BME280;41718;51.980;5.734;2022-12-18T17:53:22;102044.63;;;-1.53;100.00
48790;BME280;41718;51.980;5.734;2022-12-18T17:58:23;102040.69;;;-1.49;100.00
48790;BME280;41718;51.980;5.734;2022-12-18T18:03:25;102038.13;;;-1.49;100.00
48790;BME280;41718;51.980;5.734;2022-12-18T18:08:29;102039.91;;;-1.48;100.00
48790;BME280;41718;51.980;5.734;2022-12-18T18:13:32;102038.53;;;-1.45;100.00
48790;BME280;41718;51.980;5.734;2022-12-18T18:18:56;102037.25;;;-1.40;100.00
48790;BME280;41718;51.980;5.734;2022-12-18T18:24:01;102038.25;;;-1.38;100.00
48790;BME280;41718;51.980;5.734;2022-12-18T18:29:05;102040.78;;;-1.38;100.00
48790;BME280;41718;51.980;5.734;2022-12-18T18:34:14;102032.78;;;-1.32;100.00
48790;BME280;41718;51.980;5.734;2022-12-18T18:39:17;102033.94;;;-1.28;100.00
48790;BME280;41718;51.980;5.734;2022-12-18T18:44:20;102020.47;;;-1.27;100.00
48790;BME280;41718;51.980;5.734;2022-12-18T18:49:26;102027.72;;;-1.22;100.00
48790;BME280;41718;51.980;5.734;2022-12-18T18:54:28;102024.50;;;-1.19;100.00
48790;BME280;41718;51.980;5.734;2022-12-18T18:59:31;102034.81;;;-1.28;100.00
48790;BME280;41718;51.980;5.734;2022-12-18T19:04:32;102021.13;;;-1.30;100.00
48790;BME280;41718;51.980;5.734;2022-12-18T19:09:34;102010.59;;;-1.35;100.00
48790;BME280;41718;51.980;5.734;2022-12-18T19:14:36;102005.66;;;-1.33;100.00
48790;BME280;41718;51.980;5.734;2022-12-18T19:19:38;102002.63;;;-1.39;100.00
48790;BME280;41718;51.980;5.734;2022-12-18T19:24:40;102017.19;;;-1.37;100.00
48790;BME280;41718;51.980;5.734;2022-12-18T19:29:41;102004.66;;;-1.35;100.00
48790;BME280;41718;51.980;5.734;2022-12-18T19:34:45;102012.50;;;-1.32;100.00
48790;BME280;41718;51.980;5.734;2022-12-18T19:39:48;102014.03;;;-1.34;100.00
48790;BME280;41718;51.980;5.734;2022-12-18T19:44:50;102025.94;;;-1.33;100.00
48790;BME280;41718;51.980;5.734;2022-12-18T19:49:51;102011.72;;;-1.31;100.00
48790;BME280;41718;51.980;5.734;2022-12-18T19:54:55;102012.09;;;-1.26;100.00
48790;BME280;41718;51.980;5.734;2022-12-18T19:59:58;102009.44;;;-1.28;100.00
48790;BME280;41718;51.980;5.734;2022-12-18T20:05:00;102015.41;;;-1.27;100.00
48790;BME280;41718;51.980;5.734;2022-12-18T20:10:03;102005.13;;;-1.29;100.00
48790;BME280;41718;51.980;5.734;2022-12-18T20:15:09;102001.84;;;-1.28;100.00
48790;BME280;41718;51.980;5.734;2022-12-18T20:20:11;101992.81;;;-1.24;100.00
48790;BME280;41718;51.980;5.734;2022-12-18T20:25:13;102000.06;;;-1.29;100.00
48790;BME280;41718;51.980;5.734;2022-12-18T20:30:18;102006.25;;;-1.25;100.00
48790;BME280;41718;51.980;5.734;2022-12-18T20:35:19;102025.44;;;-1.19;100.00
48790;BME280;41718;51.980;5.734;2022-12-18T20:40:21;102025.66;;;-1.16;100.00
48790;BME280;41718;51.980;5.734;2022-12-18T20:45:23;102020.84;;;-1.13;100.00
48790;BME280;41718;51.980;5.734;2022-12-18T20:50:25;102022.50;;;-1.13;100.00
48790;BME280;41718;51.980;5.734;2022-12-18T20:55:30;102010.69;;;-1.13;100.00
48790;BME280;41718;51.980;5.734;2022-12-18T21:00:33;102004.84;;;-1.12;100.00
48790;BME280;41718;51.980;5.734;2022-12-18T21:05:35;101999.88;;;-1.10;100.00
48790;BME280;41718;51.980;5.734;2022-12-18T21:10:44;101992.28;;;-1.10;100.00
48790;BME280;41718;51.980;5.734;2022-12-18T21:15:54;101967.53;;;-1.13;100.00
48790;BME280;41718;51.980;5.734;2022-12-18T21:20:57;101971.72;;;-1.13;100.00
48790;BME280;41718;51.980;5.734;2022-12-18T21:26:19;101962.47;;;-1.13;100.00
48790;BME280;41718;51.980;5.734;2022-12-18T21:31:23;101941.50;;;-1.10;100.00
48790;BME280;41718;51.980;5.734;2022-12-18T21:36:27;101935.66;;;-1.09;100.00
48790;BME280;41718;51.980;5.734;2022-12-18T21:41:34;101925.50;;;-1.09;100.00
48790;BME280;41718;51.980;5.734;2022-12-18T21:46:56;101918.91;;;-1.07;100.00
48790;BME280;41718;51.980;5.734;2022-12-18T21:52:13;101909.75;;;-1.05;100.00
48790;BME280;41718;51.980;5.734;2022-12-18T21:57:18;101902.38;;;-1.02;100.00
48790;BME280;41718;51.980;5.734;2022-12-18T22:02:21;101899.28;;;-0.98;100.00
48790;BME280;41718;51.980;5.734;2022-12-18T22:07:27;101899.91;;;-0.90;100.00
48790;BME280;41718;51.980;5.734;2022-12-18T22:12:29;101887.31;;;-0.89;100.00
48790;BME280;41718;51.980;5.734;2022-12-18T22:17:45;101891.72;;;-0.86;100.00
48790;BME280;41718;51.980;5.734;2022-12-18T22:22:49;101882.47;;;-0.86;100.00
48790;BME280;41718;51.980;5.734;2022-12-18T22:27:52;101874.84;;;-0.86;100.00
48790;BME280;41718;51.980;5.734;2022-12-18T22:33:12;101857.84;;;-0.87;100.00
48790;BME280;41718;51.980;5.734;2022-12-18T22:38:14;101833.31;;;-0.86;100.00
48790;BME280;41718;51.980;5.734;2022-12-18T22:43:22;101823.06;;;-0.88;100.00
48790;BME280;41718;51.980;5.734;2022-12-18T22:48:27;101803.63;;;-0.87;100.00
48790;BME280;41718;51.980;5.734;2022-12-18T22:53:37;101797.91;;;-0.85;100.00
48790;BME280;41718;51.980;5.734;2022-12-18T22:58:48;101799.78;;;-0.82;100.00
48790;BME280;41718;51.980;5.734;2022-12-18T23:03:51;101785.66;;;-0.78;100.00
48790;BME280;41718;51.980;5.734;2022-12-18T23:08:56;101756.44;;;-0.73;100.00
48790;BME280;41718;51.980;5.734;2022-12-18T23:14:01;101749.91;;;-0.70;100.00
48790;BME280;41718;51.980;5.734;2022-12-18T23:19:03;101738.50;;;-0.75;100.00
48790;BME280;41718;51.980;5.734;2022-12-18T23:24:06;101727.25;;;-0.78;100.00
48790;BME280;41718;51.980;5.734;2022-12-18T23:29:08;101711.56;;;-0.85;100.00
48790;BME280;41718;51.980;5.734;2022-12-18T23:34:11;101719.50;;;-0.80;100.00
48790;BME280;41718;51.980;5.734;2022-12-18T23:39:13;101718.63;;;-0.81;100.00
48790;BME280;41718;51.980;5.734;2022-12-18T23:44:29;101694.09;;;-0.80;100.00
48790;BME280;41718;51.980;5.734;2022-12-18T23:49:30;101710.47;;;-0.76;100.00
48790;BME280;41718;51.980;5.734;2022-12-18T23:54:32;101689.38;;;-0.75;100.00
48790;BME280;41718;51.980;5.734;2022-12-18T23:59:34;101672.16;;;-0.68;100.00
